createdAt,value
2019-05-14T00:00:04.683Z,0.00
2019-05-14T00:01:04.671Z,0.00
2019-05-14T00:02:04.688Z,0.00
2019-05-14T00:03:04.630Z,0.00
2019-05-14T00:04:04.619Z,0.00
2019-05-14T00:05:04.608Z,0.00
2019-05-14T00:06:04.608Z,0.00
2019-05-14T00:07:04.589Z,0.00
2019-05-14T00:08:04.586Z,0.00
2019-05-14T00:09:04.560Z,0.00
2019-05-14T00:10:04.592Z,0.00
2019-05-14T00:11:04.549Z,0.00
2019-05-14T00:12:04.540Z,0.00
2019-05-14T00:13:04.517Z,0.00
2019-05-14T00:14:04.522Z,0.00
2019-05-14T00:15:04.502Z,0.00
2019-05-14T00:16:04.505Z,0.00
2019-05-14T00:17:04.475Z,0.00
2019-05-14T00:18:04.471Z,0.00
2019-05-14T00:19:04.472Z,0.00
2019-05-14T00:20:09.406Z,0.00
2019-05-14T00:21:05.428Z,0.00
2019-05-14T00:22:04.428Z,0.00
2019-05-14T00:23:04.408Z,0.00
2019-05-14T00:24:04.420Z,0.00
2019-05-14T00:25:04.382Z,0.00
2019-05-14T00:26:04.391Z,0.00
2019-05-14T00:27:04.364Z,0.00
2019-05-14T00:28:04.354Z,0.00
2019-05-14T00:29:04.340Z,0.00
2019-05-14T00:30:04.378Z,0.00
2019-05-14T00:31:04.335Z,0.00
2019-05-14T00:32:04.310Z,0.00
2019-05-14T00:33:04.301Z,0.00
2019-05-14T00:34:04.285Z,0.00
2019-05-14T00:35:04.275Z,0.00
2019-05-14T00:36:04.283Z,0.00
2019-05-14T00:37:04.271Z,0.00
2019-05-14T00:38:04.250Z,0.00
2019-05-14T00:39:04.230Z,0.00
2019-05-14T00:40:04.223Z,0.00
2019-05-14T00:41:04.211Z,0.00
2019-05-14T00:42:04.206Z,0.00
2019-05-14T00:43:04.205Z,0.00
2019-05-14T00:44:04.185Z,0.00
2019-05-14T00:45:04.166Z,0.00
2019-05-14T00:46:04.155Z,0.00
2019-05-14T00:47:04.145Z,0.00
2019-05-14T00:48:04.152Z,0.00
2019-05-14T00:49:04.129Z,0.00
2019-05-14T00:50:04.122Z,0.00
2019-05-14T00:51:04.110Z,0.00
2019-05-14T00:52:04.089Z,0.00
2019-05-14T00:53:04.077Z,0.00
2019-05-14T00:54:04.079Z,0.00
2019-05-14T00:55:04.082Z,0.00
2019-05-14T00:56:04.051Z,0.00
2019-05-14T00:57:04.040Z,0.00
2019-05-14T00:58:04.025Z,0.00
2019-05-14T00:59:04.010Z,0.00
2019-05-14T01:00:04.051Z,0.00
2019-05-14T01:01:04.017Z,0.00
2019-05-14T01:02:03.979Z,0.00
2019-05-14T01:03:03.966Z,0.00
2019-05-14T01:04:03.992Z,0.00
2019-05-14T01:05:03.944Z,0.00
2019-05-14T01:06:03.938Z,0.00
2019-05-14T01:07:03.980Z,0.00
2019-05-14T01:08:03.912Z,0.00
2019-05-14T01:09:03.900Z,0.00
2019-05-14T01:10:03.887Z,0.00
2019-05-14T01:11:03.887Z,0.00
2019-05-14T01:12:03.898Z,0.00
2019-05-14T01:13:03.865Z,0.00
2019-05-14T01:14:03.843Z,0.00
2019-05-14T01:15:10.411Z,0.00
2019-05-14T01:16:04.825Z,0.00
2019-05-14T01:17:03.814Z,0.00
2019-05-14T01:18:03.814Z,0.00
2019-05-14T01:19:03.814Z,0.00
2019-05-14T01:20:03.778Z,0.00
2019-05-14T01:21:03.767Z,0.00
2019-05-14T01:22:03.783Z,0.00
2019-05-14T01:23:03.747Z,0.00
2019-05-14T01:24:03.752Z,0.00
2019-05-14T01:25:03.730Z,0.00
2019-05-14T01:26:03.714Z,0.00
2019-05-14T01:27:03.703Z,0.00
2019-05-14T01:28:03.691Z,0.00
2019-05-14T01:29:03.681Z,0.00
2019-05-14T01:30:03.732Z,0.00
2019-05-14T01:31:03.657Z,0.00
2019-05-14T01:32:03.643Z,0.00
2019-05-14T01:33:03.633Z,0.00
2019-05-14T01:34:03.624Z,0.00
2019-05-14T01:35:03.616Z,0.00
2019-05-14T01:36:03.610Z,0.00
2019-05-14T01:37:03.603Z,0.00
2019-05-14T01:38:03.582Z,0.00
2019-05-14T01:39:03.632Z,0.00
2019-05-14T01:40:03.555Z,0.00
2019-05-14T01:41:03.569Z,0.00
2019-05-14T01:42:03.547Z,0.00
2019-05-14T01:43:03.523Z,0.00
2019-05-14T01:44:03.520Z,0.00
2019-05-14T01:45:03.521Z,0.00
2019-05-14T01:46:03.491Z,0.00
2019-05-14T01:47:03.489Z,0.00
2019-05-14T01:48:03.466Z,0.00
2019-05-14T01:49:03.462Z,0.00
2019-05-14T01:50:03.451Z,0.00
2019-05-14T01:51:03.446Z,0.00
2019-05-14T01:52:03.439Z,0.00
2019-05-14T01:53:03.428Z,0.00
2019-05-14T01:54:03.404Z,0.00
2019-05-14T01:55:03.394Z,0.00
2019-05-14T01:56:03.389Z,0.00
2019-05-14T01:57:03.363Z,0.00
2019-05-14T01:58:03.376Z,0.00
2019-05-14T01:59:03.375Z,0.00
2019-05-14T02:00:03.336Z,0.00
2019-05-14T02:01:03.326Z,0.00
2019-05-14T02:02:03.321Z,0.00
2019-05-14T02:03:03.300Z,0.00
2019-05-14T02:04:03.304Z,0.00
2019-05-14T02:05:03.279Z,0.00
2019-05-14T02:06:03.265Z,0.00
2019-05-14T02:07:03.281Z,0.00
2019-05-14T02:08:03.260Z,0.00
2019-05-14T02:09:03.251Z,0.00
2019-05-14T02:10:03.223Z,0.00
2019-05-14T02:11:03.213Z,0.00
2019-05-14T02:12:03.203Z,0.00
2019-05-14T02:13:03.247Z,0.00
2019-05-14T02:14:03.178Z,0.00
2019-05-14T02:15:03.188Z,0.00
2019-05-14T02:16:03.178Z,0.00
2019-05-14T02:17:03.147Z,0.00
2019-05-14T02:18:03.141Z,0.00
2019-05-14T02:19:03.151Z,0.00
2019-05-14T02:20:03.117Z,0.00
2019-05-14T02:21:03.139Z,0.00
2019-05-14T02:22:03.119Z,0.00
2019-05-14T02:23:03.079Z,0.00
2019-05-14T02:24:03.084Z,0.00
2019-05-14T02:25:03.079Z,0.00
2019-05-14T02:26:03.051Z,0.00
2019-05-14T02:27:03.035Z,0.00
2019-05-14T02:28:03.048Z,0.00
2019-05-14T02:29:03.011Z,0.00
2019-05-14T02:30:03.024Z,0.00
2019-05-14T02:31:04.049Z,0.00
2019-05-14T02:32:02.983Z,0.00
2019-05-14T02:33:02.982Z,0.00
2019-05-14T02:34:03.026Z,0.00
2019-05-14T02:35:02.947Z,0.00
2019-05-14T02:36:02.937Z,0.00
2019-05-14T02:37:02.932Z,0.00
2019-05-14T02:38:02.918Z,0.00
2019-05-14T02:39:02.933Z,0.00
2019-05-14T02:40:02.928Z,0.00
2019-05-14T02:41:02.888Z,0.00
2019-05-14T02:42:02.876Z,0.00
2019-05-14T02:43:02.861Z,0.00
2019-05-14T02:44:02.851Z,0.00
2019-05-14T02:45:02.857Z,0.00
2019-05-14T02:46:11.909Z,0.00
2019-05-14T02:47:03.829Z,0.00
2019-05-14T02:48:02.805Z,0.00
2019-05-14T02:49:02.816Z,0.00
2019-05-14T02:50:02.788Z,0.00
2019-05-14T02:51:02.793Z,0.00
2019-05-14T02:52:02.759Z,0.00
2019-05-14T02:53:02.780Z,0.00
2019-05-14T02:54:02.734Z,0.00
2019-05-14T02:55:02.727Z,0.00
2019-05-14T02:56:02.760Z,0.00
2019-05-14T02:57:02.725Z,0.00
2019-05-14T02:58:02.692Z,0.00
2019-05-14T02:59:05.679Z,0.00
2019-05-14T03:00:02.674Z,0.00
2019-05-14T03:01:02.664Z,0.00
2019-05-14T03:02:02.666Z,0.00
2019-05-14T03:03:02.651Z,0.00
2019-05-14T03:04:02.632Z,0.00
2019-05-14T03:05:02.651Z,0.00
2019-05-14T03:06:10.341Z,0.00
2019-05-14T03:07:02.605Z,0.00
2019-05-14T03:08:02.593Z,0.00
2019-05-14T03:09:02.581Z,0.00
2019-05-14T03:10:02.560Z,4.00
2019-05-14T03:11:02.545Z,0.00
2019-05-14T03:12:02.571Z,0.00
2019-05-14T03:13:02.556Z,0.00
2019-05-14T03:14:02.523Z,4.00
2019-05-14T03:15:02.501Z,0.00
2019-05-14T03:16:20.757Z,4.00
2019-05-14T03:17:03.523Z,0.00
2019-05-14T03:18:02.481Z,4.00
2019-05-14T03:19:02.504Z,0.00
2019-05-14T03:20:02.447Z,4.00
2019-05-14T03:21:02.443Z,4.00
2019-05-14T03:22:02.426Z,0.00
2019-05-14T03:23:08.634Z,4.00
2019-05-14T03:24:03.413Z,4.00
2019-05-14T03:25:02.392Z,4.00
2019-05-14T03:26:02.395Z,4.00
2019-05-14T03:27:02.371Z,4.00
2019-05-14T03:28:02.382Z,4.00
2019-05-14T03:29:02.378Z,4.00
2019-05-14T03:30:02.427Z,8.00
2019-05-14T03:31:03.800Z,8.00
2019-05-14T03:32:03.723Z,12.00
2019-05-14T03:33:03.372Z,8.00
2019-05-14T03:34:03.606Z,12.00
2019-05-14T03:35:04.255Z,12.00
2019-05-14T03:36:09.268Z,12.00
2019-05-14T03:37:04.213Z,16.00
2019-05-14T03:38:02.248Z,16.00
2019-05-14T03:39:02.237Z,20.00
2019-05-14T03:40:02.248Z,12.00
2019-05-14T03:41:02.249Z,24.00
2019-05-14T03:42:02.207Z,20.00
2019-05-14T03:43:02.216Z,20.00
2019-05-14T03:44:02.184Z,28.00
2019-05-14T03:45:02.173Z,28.00
2019-05-14T03:46:02.160Z,32.00
2019-05-14T03:47:05.422Z,28.00
2019-05-14T03:48:02.137Z,40.00
2019-05-14T03:49:02.140Z,32.00
2019-05-14T03:50:02.163Z,40.00
2019-05-14T03:51:02.120Z,40.00
2019-05-14T03:52:02.114Z,40.00
2019-05-14T03:53:02.165Z,52.00
2019-05-14T03:54:07.101Z,44.00
2019-05-14T03:55:04.827Z,60.00
2019-05-14T03:56:02.051Z,48.00
2019-05-14T03:57:02.046Z,64.00
2019-05-14T03:58:02.047Z,64.00
2019-05-14T03:59:02.104Z,60.00
2019-05-14T04:00:02.021Z,80.00
2019-05-14T04:01:02.009Z,64.00
2019-05-14T04:02:02.003Z,88.00
2019-05-14T04:03:01.973Z,76.00
2019-05-14T04:04:01.966Z,88.00
2019-05-14T04:05:02.016Z,92.00
2019-05-14T04:06:01.939Z,88.00
2019-05-14T04:07:01.939Z,116.00
2019-05-14T04:08:01.929Z,92.00
2019-05-14T04:09:01.942Z,132.00
2019-05-14T04:10:01.894Z,108.00
2019-05-14T04:11:01.932Z,124.00
2019-05-14T04:12:01.873Z,124.00
2019-05-14T04:13:01.864Z,108.00
2019-05-14T04:14:01.889Z,140.00
2019-05-14T04:15:01.857Z,108.00
2019-05-14T04:16:01.844Z,156.00
2019-05-14T04:17:09.898Z,132.00
2019-05-14T04:18:02.806Z,152.00
2019-05-14T04:19:01.801Z,156.00
2019-05-14T04:20:01.795Z,144.00
2019-05-14T04:21:01.772Z,176.00
2019-05-14T04:22:01.780Z,144.00
2019-05-14T04:23:01.779Z,168.00
2019-05-14T04:24:01.740Z,160.00
2019-05-14T04:25:01.728Z,160.00
2019-05-14T04:26:01.736Z,180.00
2019-05-14T04:27:07.144Z,152.00
2019-05-14T04:28:02.719Z,196.00
2019-05-14T04:29:01.701Z,168.00
2019-05-14T04:30:01.699Z,188.00
2019-05-14T04:31:01.666Z,188.00
2019-05-14T04:32:01.659Z,176.00
2019-05-14T04:33:01.642Z,216.00
2019-05-14T04:34:01.647Z,180.00
2019-05-14T04:35:01.661Z,216.00
2019-05-14T04:36:01.608Z,216.00
2019-05-14T04:37:01.614Z,216.00
2019-05-14T04:38:01.613Z,252.00
2019-05-14T04:39:01.575Z,212.00
2019-05-14T04:40:10.692Z,268.00
2019-05-14T04:41:10.409Z,232.00
2019-05-14T04:42:01.583Z,252.00
2019-05-14T04:43:10.247Z,264.00
2019-05-14T04:44:01.586Z,236.00
2019-05-14T04:45:11.116Z,276.00
2019-05-14T04:46:10.467Z,248.00
2019-05-14T04:47:21.686Z,256.00
2019-05-14T04:50:29.674Z,284.00
2019-05-14T04:51:35.682Z,308.00
2019-05-14T04:52:35.703Z,260.00
2019-05-14T04:53:30.790Z,316.00
2019-05-14T04:54:30.341Z,304.00
2019-05-14T04:55:29.707Z,272.00
2019-05-14T04:56:30.125Z,324.00
2019-05-14T04:57:29.988Z,296.00
2019-05-14T04:58:35.527Z,280.00
2019-05-14T04:59:29.966Z,336.00
2019-05-14T05:00:30.479Z,304.00
2019-05-14T05:01:29.430Z,320.00
2019-05-14T05:02:30.139Z,356.00
2019-05-14T05:03:31.332Z,312.00
2019-05-14T05:04:29.870Z,324.00
2019-05-14T05:05:29.941Z,376.00
2019-05-14T05:06:29.104Z,400.00
2019-05-14T05:07:29.828Z,616.00
2019-05-14T05:08:30.433Z,760.00
2019-05-14T05:09:29.376Z,776.00
2019-05-14T05:10:29.825Z,776.00
2019-05-14T05:11:29.068Z,760.00
2019-05-14T05:12:29.629Z,724.00
2019-05-14T05:13:29.179Z,768.00
2019-05-14T05:14:29.677Z,748.00
2019-05-14T05:15:29.086Z,696.00
2019-05-14T05:16:29.536Z,720.00
2019-05-14T05:17:42.768Z,792.00
2019-05-14T05:18:29.748Z,708.00
2019-05-14T05:19:29.033Z,728.00
2019-05-14T05:20:29.172Z,804.00
2019-05-14T05:21:28.274Z,848.00
2019-05-14T05:22:28.577Z,968.00
2019-05-14T05:23:28.414Z,1188.00
2019-05-14T05:24:28.767Z,1128.00
2019-05-14T05:25:29.259Z,948.00
2019-05-14T05:26:28.642Z,1012.00
2019-05-14T05:27:28.671Z,1692.00
2019-05-14T05:28:28.332Z,4100.00
2019-05-14T05:29:28.589Z,4380.00
2019-05-14T05:30:29.435Z,2964.00
2019-05-14T05:31:28.974Z,2372.00
2019-05-14T05:32:28.560Z,2428.00
2019-05-14T05:33:29.431Z,3716.00
2019-05-14T05:34:28.254Z,5248.00
2019-05-14T05:35:29.171Z,6504.00
2019-05-14T05:36:29.040Z,9388.00
2019-05-14T05:37:29.427Z,11580.00
2019-05-14T05:38:29.187Z,12928.00
2019-05-14T05:39:28.196Z,9512.00
2019-05-14T05:40:28.800Z,1684.00
2019-05-14T05:41:28.246Z,2924.00
2019-05-14T05:42:29.484Z,4508.00
2019-05-14T05:43:28.548Z,8928.00
2019-05-14T05:44:28.715Z,12864.00
2019-05-14T05:45:29.004Z,11648.00
2019-05-14T05:46:28.527Z,9916.00
2019-05-14T05:47:28.689Z,5900.00
2019-05-14T05:48:28.550Z,6204.00
2019-05-14T05:49:29.180Z,6584.00
2019-05-14T05:50:28.731Z,3792.00
2019-05-14T05:51:28.887Z,7052.00
2019-05-14T05:52:28.321Z,6016.00
2019-05-14T05:53:28.806Z,2876.00
2019-05-14T05:54:29.192Z,5080.00
2019-05-14T05:55:28.787Z,4740.00
2019-05-14T05:56:28.784Z,6444.00
2019-05-14T05:57:28.368Z,7856.00
2019-05-14T05:58:29.892Z,8712.00
2019-05-14T05:59:29.287Z,6932.00
2019-05-14T06:00:29.835Z,4996.00
2019-05-14T06:01:41.677Z,4012.00
2019-05-14T06:02:29.160Z,4368.00
2019-05-14T06:03:30.242Z,6320.00
2019-05-14T06:04:29.055Z,7744.00
2019-05-14T06:05:29.242Z,8016.00
2019-05-14T06:06:28.381Z,8412.00
2019-05-14T06:07:28.822Z,5932.00
2019-05-14T06:08:28.174Z,4876.00
2019-05-14T06:09:28.662Z,4956.00
2019-05-14T06:10:29.149Z,5508.00
2019-05-14T06:11:29.031Z,4764.00
2019-05-14T06:12:29.385Z,4816.00
2019-05-14T06:13:28.718Z,5528.00
2019-05-14T06:14:29.163Z,8056.00
2019-05-14T06:15:43.860Z,12264.00
2019-05-14T06:16:29.001Z,13792.00
2019-05-14T06:17:28.468Z,8660.00
2019-05-14T06:18:28.587Z,6156.00
2019-05-14T06:19:28.986Z,5648.00
2019-05-14T06:20:28.244Z,6464.00
2019-05-14T06:21:29.301Z,10168.00
2019-05-14T06:22:28.007Z,13416.00
2019-05-14T06:23:28.499Z,14016.00
2019-05-14T06:24:28.545Z,11340.00
2019-05-14T06:25:30.891Z,7980.00
2019-05-14T06:26:29.001Z,6004.00
2019-05-14T06:27:28.806Z,7244.00
2019-05-14T06:28:32.361Z,5708.00
2019-05-14T06:29:28.979Z,4672.00
2019-05-14T06:30:28.490Z,8868.00
2019-05-14T06:31:29.103Z,12544.00
2019-05-14T06:32:29.128Z,14272.00
2019-05-14T06:33:28.655Z,12736.00
2019-05-14T06:34:29.078Z,15840.00
2019-05-14T06:35:28.466Z,17760.00
2019-05-14T06:36:29.085Z,17440.00
2019-05-14T06:37:26.879Z,15712.00
2019-05-14T06:38:29.171Z,15936.00
2019-05-14T06:39:28.263Z,18624.00
2019-05-14T06:40:28.716Z,19040.00
2019-05-14T06:41:28.379Z,21216.00
2019-05-14T06:42:28.516Z,18528.00
2019-05-14T06:43:28.772Z,23744.00
2019-05-14T06:44:29.241Z,28416.00
2019-05-14T06:45:29.152Z,24800.00
2019-05-14T06:46:28.440Z,24448.00
2019-05-14T06:47:28.796Z,21312.00
2019-05-14T06:48:31.506Z,16800.00
2019-05-14T06:49:28.933Z,11552.00
2019-05-14T06:50:28.504Z,8040.00
2019-05-14T06:51:28.849Z,5336.00
2019-05-14T06:52:28.985Z,4632.00
2019-05-14T06:53:29.047Z,3496.00
2019-05-14T06:54:29.120Z,2284.00
2019-05-14T06:55:28.404Z,1788.00
2019-05-14T06:56:28.190Z,1708.00
2019-05-14T06:57:28.554Z,1600.00
2019-05-14T06:58:29.535Z,1624.00
2019-05-14T06:59:28.750Z,1468.00
2019-05-14T07:00:28.593Z,1280.00
2019-05-14T07:01:28.980Z,1276.00
2019-05-14T07:02:28.529Z,1216.00
2019-05-14T07:03:28.095Z,1332.00
2019-05-14T07:04:28.646Z,1220.00
2019-05-14T07:05:28.134Z,1204.00
2019-05-14T07:06:28.799Z,1208.00
2019-05-14T07:07:29.703Z,1224.00
2019-05-14T07:08:28.455Z,1192.00
2019-05-14T07:09:28.759Z,1180.00
2019-05-14T07:10:28.718Z,1136.00
2019-05-14T07:11:29.000Z,1132.00
2019-05-14T07:12:29.188Z,836.00
2019-05-14T07:13:28.627Z,1116.00
2019-05-14T07:14:28.280Z,1004.00
2019-05-14T07:15:28.867Z,944.00
2019-05-14T07:16:28.652Z,960.00
2019-05-14T07:17:28.624Z,892.00
2019-05-14T07:18:30.143Z,952.00
2019-05-14T07:19:29.412Z,988.00
2019-05-14T07:20:28.291Z,1044.00
2019-05-14T07:21:28.981Z,1052.00
2019-05-14T07:22:28.172Z,1068.00
2019-05-14T07:23:28.739Z,1048.00
2019-05-14T07:24:28.301Z,1004.00
2019-05-14T07:25:28.185Z,952.00
2019-05-14T07:26:26.324Z,900.00
2019-05-14T07:27:28.263Z,872.00
2019-05-14T07:28:28.586Z,860.00
2019-05-14T07:29:26.289Z,896.00
2019-05-14T07:30:29.002Z,968.00
2019-05-14T07:31:28.911Z,1016.00
2019-05-14T07:32:28.690Z,1084.00
2019-05-14T07:33:29.017Z,1092.00
2019-05-14T07:34:28.299Z,1080.00
2019-05-14T07:35:28.650Z,1056.00
2019-05-14T07:36:26.209Z,1084.00
2019-05-14T07:37:28.428Z,1084.00
2019-05-14T07:38:28.416Z,1096.00
2019-05-14T07:39:26.191Z,1052.00
2019-05-14T07:40:28.902Z,1112.00
2019-05-14T07:41:28.449Z,1148.00
2019-05-14T07:42:28.713Z,1144.00
2019-05-14T07:43:28.427Z,1128.00
2019-05-14T07:44:26.141Z,1148.00
2019-05-14T07:45:26.145Z,1104.00
2019-05-14T07:46:28.187Z,1124.00
2019-05-14T07:47:26.092Z,1116.00
2019-05-14T07:48:28.498Z,1172.00
2019-05-14T07:49:26.062Z,1256.00
2019-05-14T07:50:28.829Z,1376.00
2019-05-14T07:51:28.092Z,1328.00
2019-05-14T07:52:28.298Z,1348.00
2019-05-14T07:53:38.106Z,1368.00
2019-05-14T07:54:28.310Z,1308.00
2019-05-14T07:55:25.998Z,1308.00
2019-05-14T07:56:26.000Z,1384.00
2019-05-14T07:57:28.317Z,1444.00
2019-05-14T07:58:28.152Z,1524.00
2019-05-14T07:59:25.970Z,1600.00
2019-05-14T08:00:28.393Z,1664.00
2019-05-14T08:01:28.034Z,1704.00
2019-05-14T08:02:25.940Z,1720.00
2019-05-14T08:03:28.350Z,1724.00
2019-05-14T08:04:25.898Z,1728.00
2019-05-14T08:05:25.905Z,1760.00
2019-05-14T08:06:28.079Z,1788.00
2019-05-14T08:07:28.035Z,1880.00
2019-05-14T08:08:25.851Z,1940.00
2019-05-14T08:09:28.074Z,2032.00
2019-05-14T08:10:25.834Z,1920.00
2019-05-14T08:11:27.946Z,1848.00
2019-05-14T08:12:25.821Z,1888.00
2019-05-14T08:13:27.712Z,2100.00
2019-05-14T08:14:25.787Z,2044.00
2019-05-14T08:15:27.877Z,2164.00
2019-05-14T08:16:25.782Z,2212.00
2019-05-14T08:17:27.989Z,2240.00
2019-05-14T08:18:25.743Z,2308.00
2019-05-14T08:19:27.899Z,2348.00
2019-05-14T08:20:25.717Z,2340.00
2019-05-14T08:21:28.042Z,2340.00
2019-05-14T08:22:25.717Z,1144.00
2019-05-14T08:23:28.024Z,640.00
2019-05-14T08:24:27.124Z,2580.00
2019-05-14T08:25:28.131Z,2628.00
2019-05-14T08:26:25.649Z,2644.00
2019-05-14T08:27:27.924Z,2772.00
2019-05-14T08:28:28.869Z,1776.00
2019-05-14T08:29:25.626Z,2792.00
2019-05-14T08:30:28.167Z,2780.00
2019-05-14T08:31:25.596Z,2956.00
2019-05-14T08:32:25.640Z,2940.00
2019-05-14T08:33:25.614Z,2952.00
2019-05-14T08:34:25.583Z,2948.00
2019-05-14T08:35:25.554Z,3040.00
2019-05-14T08:36:25.558Z,1152.00
2019-05-14T08:37:27.827Z,2532.00
2019-05-14T08:38:25.518Z,2924.00
2019-05-14T08:39:25.555Z,840.00
2019-05-14T08:40:25.497Z,856.00
2019-05-14T08:41:25.494Z,988.00
2019-05-14T08:42:25.484Z,3168.00
2019-05-14T08:43:25.462Z,1972.00
2019-05-14T08:44:25.465Z,1104.00
2019-05-14T08:45:25.451Z,1788.00
2019-05-14T08:46:25.443Z,3096.00
2019-05-14T08:47:25.422Z,768.00
2019-05-14T08:48:25.406Z,680.00
2019-05-14T08:49:39.037Z,760.00
2019-05-14T08:50:28.135Z,844.00
2019-05-14T08:51:25.391Z,816.00
2019-05-14T08:52:25.360Z,844.00
2019-05-14T08:53:25.351Z,936.00
2019-05-14T08:54:25.361Z,980.00
2019-05-14T08:55:25.331Z,3312.00
2019-05-14T08:56:25.326Z,1088.00
2019-05-14T08:57:25.417Z,3272.00
2019-05-14T08:58:25.591Z,2836.00
2019-05-14T08:59:25.282Z,3172.00
2019-05-14T09:00:25.271Z,3172.00
2019-05-14T09:01:25.292Z,3192.00
2019-05-14T09:02:25.265Z,3432.00
2019-05-14T09:03:25.250Z,2440.00
2019-05-14T09:04:25.272Z,1052.00
2019-05-14T09:05:25.225Z,992.00
2019-05-14T09:06:25.205Z,1200.00
2019-05-14T09:07:25.335Z,1056.00
2019-05-14T09:08:25.190Z,3488.00
2019-05-14T09:09:25.167Z,3736.00
2019-05-14T09:10:25.161Z,3096.00
2019-05-14T09:11:26.355Z,816.00
2019-05-14T09:12:25.158Z,772.00
2019-05-14T09:13:25.154Z,720.00
2019-05-14T09:14:25.119Z,756.00
2019-05-14T09:15:25.102Z,840.00
2019-05-14T09:16:39.497Z,992.00
2019-05-14T09:17:26.082Z,3344.00
2019-05-14T09:18:25.135Z,3256.00
2019-05-14T09:19:25.059Z,3140.00
2019-05-14T09:20:25.052Z,3312.00
2019-05-14T09:21:25.035Z,1084.00
2019-05-14T09:22:25.028Z,2656.00
2019-05-14T09:23:25.014Z,856.00
2019-05-14T09:24:25.056Z,772.00
2019-05-14T09:25:24.999Z,824.00
2019-05-14T09:26:24.983Z,860.00
2019-05-14T09:27:24.970Z,916.00
2019-05-14T09:28:24.973Z,960.00
2019-05-14T09:29:26.114Z,1044.00
2019-05-14T09:30:24.977Z,988.00
2019-05-14T09:31:24.962Z,944.00
2019-05-14T09:32:24.924Z,1076.00
2019-05-14T09:33:24.904Z,1052.00
2019-05-14T09:34:24.933Z,1136.00
2019-05-14T09:35:24.914Z,3696.00
2019-05-14T09:36:24.871Z,3744.00
2019-05-14T09:37:24.858Z,3008.00
2019-05-14T09:38:24.851Z,3704.00
2019-05-14T09:39:24.842Z,3416.00
2019-05-14T09:40:24.841Z,1048.00
2019-05-14T09:41:27.569Z,968.00
2019-05-14T09:42:28.406Z,1064.00
2019-05-14T09:43:24.792Z,2328.00
2019-05-14T09:44:24.798Z,3576.00
2019-05-14T09:45:24.774Z,3568.00
2019-05-14T09:46:24.788Z,916.00
2019-05-14T09:47:24.752Z,772.00
2019-05-14T09:48:24.740Z,780.00
2019-05-14T09:49:24.762Z,732.00
2019-05-14T09:50:24.722Z,748.00
2019-05-14T09:51:24.725Z,796.00
2019-05-14T09:52:24.697Z,944.00
2019-05-14T09:53:24.681Z,1340.00
2019-05-14T09:54:24.724Z,1216.00
2019-05-14T09:55:24.662Z,2900.00
2019-05-14T09:56:24.651Z,3232.00
2019-05-14T09:57:24.644Z,2920.00
2019-05-14T09:58:24.632Z,3628.00
2019-05-14T09:59:24.622Z,1148.00
2019-05-14T10:00:24.621Z,988.00
2019-05-14T10:01:24.648Z,3692.00
2019-05-14T10:02:24.582Z,892.00
2019-05-14T10:03:24.572Z,872.00
2019-05-14T10:04:24.570Z,3820.00
2019-05-14T10:05:24.550Z,3824.00
2019-05-14T10:06:24.558Z,3740.00
2019-05-14T10:07:24.537Z,3576.00
2019-05-14T10:08:24.554Z,3492.00
2019-05-14T10:09:24.515Z,3276.00
2019-05-14T10:10:24.500Z,3512.00
2019-05-14T10:11:24.487Z,3704.00
2019-05-14T10:12:24.502Z,3760.00
2019-05-14T10:13:24.463Z,3580.00
2019-05-14T10:14:24.476Z,3584.00
2019-05-14T10:15:24.463Z,3660.00
2019-05-14T10:16:24.443Z,3672.00
2019-05-14T10:17:24.430Z,3644.00
2019-05-14T10:18:24.425Z,3600.00
2019-05-14T10:19:24.400Z,932.00
2019-05-14T10:20:36.453Z,3444.00
2019-05-14T10:21:25.379Z,912.00
2019-05-14T10:22:24.395Z,1192.00
2019-05-14T10:23:24.371Z,3820.00
2019-05-14T10:24:24.340Z,3900.00
2019-05-14T10:25:24.329Z,3904.00
2019-05-14T10:26:24.318Z,3772.00
2019-05-14T10:27:24.356Z,3560.00
2019-05-14T10:28:24.335Z,3700.00
2019-05-14T10:29:24.301Z,3748.00
2019-05-14T10:30:24.278Z,3820.00
2019-05-14T10:31:24.266Z,3868.00
2019-05-14T10:32:24.256Z,3932.00
2019-05-14T10:33:24.242Z,3732.00
2019-05-14T10:34:24.247Z,3812.00
2019-05-14T10:35:24.243Z,3820.00
2019-05-14T10:36:24.207Z,3864.00
2019-05-14T10:37:24.198Z,3824.00
2019-05-14T10:38:24.202Z,3468.00
2019-05-14T10:39:24.185Z,3588.00
2019-05-14T10:40:24.164Z,988.00
2019-05-14T10:41:24.151Z,984.00
2019-05-14T10:42:24.165Z,3504.00
2019-05-14T10:43:24.128Z,1268.00
2019-05-14T10:44:24.131Z,3260.00
2019-05-14T10:45:24.111Z,1344.00
2019-05-14T10:46:24.112Z,1696.00
2019-05-14T10:47:24.088Z,1240.00
2019-05-14T10:48:24.095Z,3184.00
2019-05-14T10:49:24.076Z,1172.00
2019-05-14T10:50:24.067Z,3272.00
2019-05-14T10:51:24.046Z,1128.00
2019-05-14T10:52:24.052Z,1068.00
2019-05-14T10:53:24.015Z,3476.00
2019-05-14T10:54:25.862Z,1544.00
2019-05-14T10:55:24.003Z,2700.00
2019-05-14T10:56:23.999Z,976.00
2019-05-14T10:57:23.972Z,912.00
2019-05-14T10:58:23.986Z,908.00
2019-05-14T10:59:31.522Z,920.00
2019-05-14T11:00:23.941Z,1128.00
2019-05-14T11:01:23.930Z,1076.00
2019-05-14T11:02:23.919Z,932.00
2019-05-14T11:03:23.906Z,764.00
2019-05-14T11:04:23.933Z,868.00
2019-05-14T11:05:23.891Z,3796.00
2019-05-14T11:06:23.874Z,3732.00
2019-05-14T11:07:23.864Z,3800.00
2019-05-14T11:08:23.879Z,3836.00
2019-05-14T11:09:23.868Z,3776.00
2019-05-14T11:10:23.832Z,3272.00
2019-05-14T11:11:23.819Z,1076.00
2019-05-14T11:12:23.812Z,2296.00
2019-05-14T11:13:23.807Z,1568.00
2019-05-14T11:14:23.811Z,800.00
2019-05-14T11:15:23.793Z,892.00
2019-05-14T11:16:23.763Z,2940.00
2019-05-14T11:17:23.771Z,824.00
2019-05-14T11:18:23.745Z,868.00
2019-05-14T11:19:23.733Z,2880.00
2019-05-14T11:20:23.724Z,3132.00
2019-05-14T11:21:26.781Z,3608.00
2019-05-14T11:22:24.705Z,3360.00
2019-05-14T11:23:23.688Z,3044.00
2019-05-14T11:24:23.687Z,1876.00
2019-05-14T11:25:23.667Z,1704.00
2019-05-14T11:26:24.963Z,3128.00
2019-05-14T11:27:23.664Z,3204.00
2019-05-14T11:28:23.670Z,3032.00
2019-05-14T11:29:23.622Z,3112.00
2019-05-14T11:30:23.607Z,3296.00
2019-05-14T11:31:23.600Z,3312.00
2019-05-14T11:32:23.607Z,2888.00
2019-05-14T11:33:23.584Z,3072.00
2019-05-14T11:34:23.600Z,3180.00
2019-05-14T11:35:23.552Z,3164.00
2019-05-14T11:36:23.572Z,3152.00
2019-05-14T11:37:23.530Z,3288.00
2019-05-14T11:38:33.694Z,3328.00
2019-05-14T11:39:24.511Z,3404.00
2019-05-14T11:40:23.514Z,3304.00
2019-05-14T11:41:23.486Z,3132.00
2019-05-14T11:42:23.475Z,3468.00
2019-05-14T11:43:23.470Z,3328.00
2019-05-14T11:44:23.475Z,3224.00
2019-05-14T11:45:23.442Z,3140.00
2019-05-14T11:46:38.794Z,3108.00
2019-05-14T11:47:24.428Z,3084.00
2019-05-14T11:48:23.416Z,2728.00
2019-05-14T11:49:23.399Z,3196.00
2019-05-14T11:50:23.421Z,3320.00
2019-05-14T11:51:53.213Z,3164.00
2019-05-14T11:52:24.365Z,3052.00
2019-05-14T11:53:23.386Z,3276.00
2019-05-14T11:54:23.367Z,3100.00
2019-05-14T11:55:23.333Z,3052.00
2019-05-14T11:56:23.335Z,3188.00
2019-05-14T11:57:23.309Z,3176.00
2019-05-14T11:58:23.300Z,3344.00
2019-05-14T11:59:23.293Z,1548.00
2019-05-14T12:00:25.976Z,2460.00
2019-05-14T12:01:23.291Z,1372.00
2019-05-14T12:02:23.258Z,1064.00
2019-05-14T12:03:23.257Z,3216.00
2019-05-14T12:04:23.231Z,752.00
2019-05-14T12:05:23.220Z,652.00
2019-05-14T12:06:23.232Z,852.00
2019-05-14T12:07:23.233Z,3088.00
2019-05-14T12:08:23.187Z,3216.00
2019-05-14T12:09:23.188Z,984.00
2019-05-14T12:10:23.168Z,800.00
2019-05-14T12:11:23.156Z,3152.00
2019-05-14T12:12:23.166Z,3032.00
2019-05-14T12:13:23.144Z,3296.00
2019-05-14T12:14:23.122Z,1004.00
2019-05-14T12:15:23.111Z,816.00
2019-05-14T12:16:23.104Z,748.00
2019-05-14T12:17:23.090Z,660.00
2019-05-14T12:18:23.091Z,696.00
2019-05-14T12:19:23.064Z,764.00
2019-05-14T12:20:23.091Z,2656.00
2019-05-14T12:21:23.043Z,2916.00
2019-05-14T12:22:23.042Z,3376.00
2019-05-14T12:23:23.055Z,3124.00
2019-05-14T12:24:23.025Z,3044.00
2019-05-14T12:25:23.000Z,3052.00
2019-05-14T12:26:23.020Z,2916.00
2019-05-14T12:27:22.979Z,2892.00
2019-05-14T12:28:22.980Z,3124.00
2019-05-14T12:29:22.977Z,2900.00
2019-05-14T12:30:22.946Z,2848.00
2019-05-14T12:31:22.933Z,2832.00
2019-05-14T12:32:22.961Z,2840.00